Terminal Aerodrome Forecast
Issued by NWS

Home | Current Version | Previous Version | Graphics & Text | Print | Product List | Glossary On
Versions: 1 2 3 4 5 6 7 8 9 10 11 12 13 14
000
FTUS43 KMPX 112300
TAFRWF
TAF
KRWF 112334Z 1200/1224 22006KT P6SM SCT030
     FM120700 30003KT 5SM BR SCT035 BKN120
     FM121400 32006KT P6SM SCT040 BKN120
     FM121800 29007KT P6SM -SHRA BKN050 OVC090=

USA.gov is the U.S. government's official web portal to all federal, state and local government web resources and services.